sensor_id;sensor_type;location;lat;lon;timestamp;P1;durP1;ratioP1;P2;durP2;ratioP2
3527;SDS011;1778;47.966;7.854;2022-12-01T00:00:43;3.53;;;3.20;;
3527;SDS011;1778;47.966;7.854;2022-12-01T00:01:45;2.60;;;2.50;;
3527;SDS011;1778;47.966;7.854;2022-12-01T00:02:47;2.60;;;2.50;;
3527;SDS011;1778;47.966;7.854;2022-12-01T00:03:49;3.40;;;3.20;;
3527;SDS011;1778;47.966;7.854;2022-12-01T00:04:50;2.80;;;2.60;;
3527;SDS011;1778;47.966;7.854;2022-12-01T00:06:05;2.63;;;2.53;;
3527;SDS011;1778;47.966;7.854;2022-12-01T00:07:09;2.97;;;2.87;;
3527;SDS011;1778;47.966;7.854;2022-12-01T00:08:11;3.03;;;3.00;;
3527;SDS011;1778;47.966;7.854;2022-12-01T00:09:12;2.50;;;2.40;;
3527;SDS011;1778;47.966;7.854;2022-12-01T00:10:33;3.23;;;3.10;;
3527;SDS011;1778;47.966;7.854;2022-12-01T00:11:36;2.47;;;2.43;;
3527;SDS011;1778;47.966;7.854;2022-12-01T00:12:38;3.50;;;3.30;;
3527;SDS011;1778;47.966;7.854;2022-12-01T00:13:43;2.80;;;2.53;;
3527;SDS011;1778;47.966;7.854;2022-12-01T00:14:44;3.60;;;3.37;;
3527;SDS011;1778;47.966;7.854;2022-12-01T00:15:54;3.03;;;2.90;;
3527;SDS011;1778;47.966;7.854;2022-12-01T00:16:56;2.60;;;2.60;;
3527;SDS011;1778;47.966;7.854;2022-12-01T00:17:57;3.20;;;3.10;;
3527;SDS011;1778;47.966;7.854;2022-12-01T00:18:59;2.67;;;2.57;;
3527;SDS011;1778;47.966;7.854;2022-12-01T00:20:01;2.73;;;2.73;;
3527;SDS011;1778;47.966;7.854;2022-12-01T00:21:02;3.90;;;3.23;;
3527;SDS011;1778;47.966;7.854;2022-12-01T00:22:04;2.90;;;2.80;;
3527;SDS011;1778;47.966;7.854;2022-12-01T00:23:06;3.40;;;3.30;;
3527;SDS011;1778;47.966;7.854;2022-12-01T00:24:08;3.53;;;3.30;;
3527;SDS011;1778;47.966;7.854;2022-12-01T00:25:12;2.80;;;2.60;;
3527;SDS011;1778;47.966;7.854;2022-12-01T00:26:15;2.67;;;2.67;;
3527;SDS011;1778;47.966;7.854;2022-12-01T00:27:17;3.03;;;2.93;;
3527;SDS011;1778;47.966;7.854;2022-12-01T00:28:19;2.50;;;2.50;;
3527;SDS011;1778;47.966;7.854;2022-12-01T00:29:20;2.80;;;2.70;;
3527;SDS011;1778;47.966;7.854;2022-12-01T00:30:22;2.70;;;2.60;;
3527;SDS011;1778;47.966;7.854;2022-12-01T00:31:24;3.90;;;3.07;;
3527;SDS011;1778;47.966;7.854;2022-12-01T00:32:28;2.60;;;2.50;;
3527;SDS011;1778;47.966;7.854;2022-12-01T00:33:31;2.80;;;2.60;;
3527;SDS011;1778;47.966;7.854;2022-12-01T00:34:33;3.03;;;2.93;;
3527;SDS011;1778;47.966;7.854;2022-12-01T00:35:35;3.63;;;3.43;;
3527;SDS011;1778;47.966;7.854;2022-12-01T00:36:36;3.57;;;3.47;;
3527;SDS011;1778;47.966;7.854;2022-12-01T00:37:38;3.40;;;3.20;;
3527;SDS011;1778;47.966;7.854;2022-12-01T00:38:40;2.83;;;2.77;;
3527;SDS011;1778;47.966;7.854;2022-12-01T00:39:42;4.53;;;3.53;;
3527;SDS011;1778;47.966;7.854;2022-12-01T00:40:43;2.50;;;2.40;;
3527;SDS011;1778;47.966;7.854;2022-12-01T00:41:45;2.30;;;2.30;;
3527;SDS011;1778;47.966;7.854;2022-12-01T00:42:47;4.60;;;3.00;;
3527;SDS011;1778;47.966;7.854;2022-12-01T00:43:49;3.07;;;2.97;;
3527;SDS011;1778;47.966;7.854;2022-12-01T00:44:53;3.17;;;3.07;;
3527;SDS011;1778;47.966;7.854;2022-12-01T00:45:54;3.10;;;2.90;;
3527;SDS011;1778;47.966;7.854;2022-12-01T00:46:56;3.50;;;3.30;;
3527;SDS011;1778;47.966;7.854;2022-12-01T00:47:57;2.80;;;2.60;;
3527;SDS011;1778;47.966;7.854;2022-12-01T00:48:59;3.10;;;2.80;;
3527;SDS011;1778;47.966;7.854;2022-12-01T00:50:01;3.47;;;3.20;;
3527;SDS011;1778;47.966;7.854;2022-12-01T00:51:03;2.70;;;2.53;;
3527;SDS011;1778;47.966;7.854;2022-12-01T00:52:04;2.63;;;2.53;;
3527;SDS011;1778;47.966;7.854;2022-12-01T00:53:06;2.93;;;2.80;;
3527;SDS011;1778;47.966;7.854;2022-12-01T00:54:09;2.90;;;2.80;;
3527;SDS011;1778;47.966;7.854;2022-12-01T00:55:10;3.20;;;3.00;;
3527;SDS011;1778;47.966;7.854;2022-12-01T00:56:12;2.80;;;2.70;;
3527;SDS011;1778;47.966;7.854;2022-12-01T00:57:15;2.20;;;2.13;;
3527;SDS011;1778;47.966;7.854;2022-12-01T00:58:19;2.40;;;2.30;;
3527;SDS011;1778;47.966;7.854;2022-12-01T00:59:21;3.80;;;2.93;;
3527;SDS011;1778;47.966;7.854;2022-12-01T01:00:23;2.50;;;2.40;;
3527;SDS011;1778;47.966;7.854;2022-12-01T01:01:25;2.73;;;2.63;;
3527;SDS011;1778;47.966;7.854;2022-12-01T01:02:27;2.87;;;2.67;;
3527;SDS011;1778;47.966;7.854;2022-12-01T01:03:29;3.00;;;2.80;;
3527;SDS011;1778;47.966;7.854;2022-12-01T01:04:33;3.60;;;3.30;;
3527;SDS011;1778;47.966;7.854;2022-12-01T01:05:38;3.17;;;2.87;;
3527;SDS011;1778;47.966;7.854;2022-12-01T01:06:41;2.80;;;2.63;;
3527;SDS011;1778;47.966;7.854;2022-12-01T01:07:45;3.40;;;3.20;;
3527;SDS011;1778;47.966;7.854;2022-12-01T01:08:47;3.00;;;3.00;;
3527;SDS011;1778;47.966;7.854;2022-12-01T01:09:48;2.60;;;2.50;;
3527;SDS011;1778;47.966;7.854;2022-12-01T01:10:50;2.87;;;2.73;;
3527;SDS011;1778;47.966;7.854;2022-12-01T01:11:52;2.90;;;2.47;;
3527;SDS011;1778;47.966;7.854;2022-12-01T01:12:54;3.23;;;3.03;;
3527;SDS011;1778;47.966;7.854;2022-12-01T01:13:57;2.90;;;2.80;;
3527;SDS011;1778;47.966;7.854;2022-12-01T01:14:59;3.20;;;3.10;;
3527;SDS011;1778;47.966;7.854;2022-12-01T01:17:02;16.00;;;2.80;;
3527;SDS011;1778;47.966;7.854;2022-12-01T01:18:04;3.03;;;2.87;;
3527;SDS011;1778;47.966;7.854;2022-12-01T01:19:05;2.87;;;2.77;;
3527;SDS011;1778;47.966;7.854;2022-12-01T01:20:07;2.80;;;2.80;;
3527;SDS011;1778;47.966;7.854;2022-12-01T01:21:10;3.10;;;2.87;;
3527;SDS011;1778;47.966;7.854;2022-12-01T01:22:14;2.97;;;2.77;;
3527;SDS011;1778;47.966;7.854;2022-12-01T01:23:15;3.30;;;3.10;;
3527;SDS011;1778;47.966;7.854;2022-12-01T01:24:17;4.30;;;3.20;;
3527;SDS011;1778;47.966;7.854;2022-12-01T01:25:18;3.83;;;3.63;;
3527;SDS011;1778;47.966;7.854;2022-12-01T01:26:24;2.67;;;2.57;;
3527;SDS011;1778;47.966;7.854;2022-12-01T01:27:27;4.50;;;4.07;;
3527;SDS011;1778;47.966;7.854;2022-12-01T01:28:29;2.77;;;2.67;;
3527;SDS011;1778;47.966;7.854;2022-12-01T01:29:31;2.87;;;2.77;;
3527;SDS011;1778;47.966;7.854;2022-12-01T01:30:33;2.97;;;2.77;;
3527;SDS011;1778;47.966;7.854;2022-12-01T01:31:34;2.77;;;2.67;;
3527;SDS011;1778;47.966;7.854;2022-12-01T01:32:36;2.77;;;2.67;;
3527;SDS011;1778;47.966;7.854;2022-12-01T01:33:39;2.80;;;2.70;;
3527;SDS011;1778;47.966;7.854;2022-12-01T01:34:40;3.13;;;2.90;;
3527;SDS011;1778;47.966;7.854;2022-12-01T01:35:42;3.47;;;3.27;;
3527;SDS011;1778;47.966;7.854;2022-12-01T01:36:43;2.40;;;2.30;;
3527;SDS011;1778;47.966;7.854;2022-12-01T01:37:45;2.73;;;2.60;;
3527;SDS011;1778;47.966;7.854;2022-12-01T01:38:47;3.23;;;3.13;;
3527;SDS011;1778;47.966;7.854;2022-12-01T01:39:51;2.90;;;2.80;;
3527;SDS011;1778;47.966;7.854;2022-12-01T01:40:53;2.67;;;2.57;;
3527;SDS011;1778;47.966;7.854;2022-12-01T01:41:55;2.60;;;2.40;;
3527;SDS011;1778;47.966;7.854;2022-12-01T01:42:57;2.97;;;2.87;;
3527;SDS011;1778;47.966;7.854;2022-12-01T01:43:59;7.40;;;3.00;;
3527;SDS011;1778;47.966;7.854;2022-12-01T01:45:02;3.20;;;2.97;;
3527;SDS011;1778;47.966;7.854;2022-12-01T01:46:05;2.27;;;2.27;;
3527;SDS011;1778;47.966;7.854;2022-12-01T01:47:07;2.60;;;2.50;;
3527;SDS011;1778;47.966;7.854;2022-12-01T01:48:10;3.80;;;3.60;;
3527;SDS011;1778;47.966;7.854;2022-12-01T01:49:13;2.37;;;2.37;;
3527;SDS011;1778;47.966;7.854;2022-12-01T01:50:15;2.40;;;2.30;;
3527;SDS011;1778;47.966;7.854;2022-12-01T01:51:24;2.93;;;2.83;;
3527;SDS011;1778;47.966;7.854;2022-12-01T01:52:29;2.40;;;2.30;;
3527;SDS011;1778;47.966;7.854;2022-12-01T01:53:32;2.40;;;2.30;;
3527;SDS011;1778;47.966;7.854;2022-12-01T01:54:35;2.93;;;2.73;;
3527;SDS011;1778;47.966;7.854;2022-12-01T01:55:39;2.10;;;2.00;;
3527;SDS011;1778;47.966;7.854;2022-12-01T01:56:41;3.90;;;2.80;;
3527;SDS011;1778;47.966;7.854;2022-12-01T01:57:44;3.13;;;3.03;;
3527;SDS011;1778;47.966;7.854;2022-12-01T01:58:46;3.00;;;2.80;;
3527;SDS011;1778;47.966;7.854;2022-12-01T01:59:50;3.03;;;2.87;;
3527;SDS011;1778;47.966;7.854;2022-12-01T02:00:57;2.30;;;2.30;;
3527;SDS011;1778;47.966;7.854;2022-12-01T02:02:01;2.90;;;2.70;;
3527;SDS011;1778;47.966;7.854;2022-12-01T02:03:09;8.73;;;3.83;;
3527;SDS011;1778;47.966;7.854;2022-12-01T02:04:14;2.93;;;2.83;;
3527;SDS011;1778;47.966;7.854;2022-12-01T02:05:20;2.60;;;2.60;;
3527;SDS011;1778;47.966;7.854;2022-12-01T02:06:24;2.23;;;2.23;;
3527;SDS011;1778;47.966;7.854;2022-12-01T02:07:26;4.43;;;2.70;;
3527;SDS011;1778;47.966;7.854;2022-12-01T02:08:27;3.30;;;3.10;;
3527;SDS011;1778;47.966;7.854;2022-12-01T02:09:30;2.77;;;2.77;;
3527;SDS011;1778;47.966;7.854;2022-12-01T02:13:15;5.53;;;3.80;;
3527;SDS011;1778;47.966;7.854;2022-12-01T02:14:33;3.80;;;3.60;;
3527;SDS011;1778;47.966;7.854;2022-12-01T02:22:27;4.77;;;4.57;;
3527;SDS011;1778;47.966;7.854;2022-12-01T02:26:51;4.90;;;4.60;;
3527;SDS011;1778;47.966;7.854;2022-12-01T02:32:20;7.60;;;5.33;;
3527;SDS011;1778;47.966;7.854;2022-12-01T02:33:39;6.57;;;5.70;;
3527;SDS011;1778;47.966;7.854;2022-12-01T02:36:02;6.77;;;6.20;;
3527;SDS011;1778;47.966;7.854;2022-12-01T02:39:43;6.03;;;5.53;;
3527;SDS011;1778;47.966;7.854;2022-12-01T02:41:09;5.10;;;4.70;;
3527;SDS011;1778;47.966;7.854;2022-12-01T02:42:23;5.40;;;4.53;;
3527;SDS011;1778;47.966;7.854;2022-12-01T02:43:54;6.73;;;5.73;;
3527;SDS011;1778;47.966;7.854;2022-12-01T02:45:09;7.03;;;6.30;;
3527;SDS011;1778;47.966;7.854;2022-12-01T02:46:26;5.20;;;4.80;;
3527;SDS011;1778;47.966;7.854;2022-12-01T02:47:33;5.37;;;4.97;;
3527;SDS011;1778;47.966;7.854;2022-12-01T02:48:38;10.10;;;5.83;;
3527;SDS011;1778;47.966;7.854;2022-12-01T02:49:46;6.33;;;5.60;;
3527;SDS011;1778;47.966;7.854;2022-12-01T02:50:50;6.17;;;5.60;;
3527;SDS011;1778;47.966;7.854;2022-12-01T02:51:53;6.93;;;6.33;;
3527;SDS011;1778;47.966;7.854;2022-12-01T02:52:57;5.77;;;5.27;;
3527;SDS011;1778;47.966;7.854;2022-12-01T02:54:01;5.90;;;5.40;;
3527;SDS011;1778;47.966;7.854;2022-12-01T02:55:04;5.93;;;5.10;;
3527;SDS011;1778;47.966;7.854;2022-12-01T02:56:06;6.63;;;5.83;;
3527;SDS011;1778;47.966;7.854;2022-12-01T02:57:11;5.83;;;5.47;;
3527;SDS011;1778;47.966;7.854;2022-12-01T02:58:13;5.20;;;4.80;;
3527;SDS011;1778;47.966;7.854;2022-12-01T02:59:15;5.77;;;5.00;;
3527;SDS011;1778;47.966;7.854;2022-12-01T03:00:16;5.83;;;5.33;;
3527;SDS011;1778;47.966;7.854;2022-12-01T03:04:08;4.87;;;4.43;;
3527;SDS011;1778;47.966;7.854;2022-12-01T03:08:51;4.90;;;4.50;;
3527;SDS011;1778;47.966;7.854;2022-12-01T03:11:15;7.03;;;5.43;;
3527;SDS011;1778;47.966;7.854;2022-12-01T03:12:36;8.00;;;5.40;;
3527;SDS011;1778;47.966;7.854;2022-12-01T03:16:28;6.13;;;5.57;;
3527;SDS011;1778;47.966;7.854;2022-12-01T03:19:09;9.00;;;5.70;;
3527;SDS011;1778;47.966;7.854;2022-12-01T03:20:15;9.43;;;6.07;;
3527;SDS011;1778;47.966;7.854;2022-12-01T03:21:41;7.57;;;5.90;;
3527;SDS011;1778;47.966;7.854;2022-12-01T03:22:52;6.77;;;6.07;;
3527;SDS011;1778;47.966;7.854;2022-12-01T03:24:00;5.53;;;4.90;;
3527;SDS011;1778;47.966;7.854;2022-12-01T03:25:07;7.00;;;6.30;;
3527;SDS011;1778;47.966;7.854;2022-12-01T03:26:13;5.87;;;5.13;;
3527;SDS011;1778;47.966;7.854;2022-12-01T03:27:19;6.27;;;5.80;;
3527;SDS011;1778;47.966;7.854;2022-12-01T03:28:27;8.33;;;6.60;;
3527;SDS011;1778;47.966;7.854;2022-12-01T03:29:37;10.13;;;7.30;;
3527;SDS011;1778;47.966;7.854;2022-12-01T03:30:43;8.13;;;6.77;;
3527;SDS011;1778;47.966;7.854;2022-12-01T03:31:47;6.40;;;5.80;;
3527;SDS011;1778;47.966;7.854;2022-12-01T03:32:57;7.23;;;6.50;;
3527;SDS011;1778;47.966;7.854;2022-12-01T03:34:15;14.17;;;7.60;;
3527;SDS011;1778;47.966;7.854;2022-12-01T03:35:31;5.80;;;5.30;;
3527;SDS011;1778;47.966;7.854;2022-12-01T03:36:59;8.03;;;7.30;;
3527;SDS011;1778;47.966;7.854;2022-12-01T03:38:05;6.40;;;5.83;;
3527;SDS011;1778;47.966;7.854;2022-12-01T03:39:19;5.57;;;5.07;;
3527;SDS011;1778;47.966;7.854;2022-12-01T03:40:26;9.33;;;5.90;;
3527;SDS011;1778;47.966;7.854;2022-12-01T03:41:32;7.90;;;6.40;;
3527;SDS011;1778;47.966;7.854;2022-12-01T03:42:41;7.50;;;6.23;;
3527;SDS011;1778;47.966;7.854;2022-12-01T03:43:51;5.30;;;4.43;;
3527;SDS011;1778;47.966;7.854;2022-12-01T03:44:58;6.60;;;6.00;;
3527;SDS011;1778;47.966;7.854;2022-12-01T03:47:09;11.70;;;5.80;;
3527;SDS011;1778;47.966;7.854;2022-12-01T03:48:16;7.80;;;5.93;;
3527;SDS011;1778;47.966;7.854;2022-12-01T03:49:18;5.80;;;5.23;;
3527;SDS011;1778;47.966;7.854;2022-12-01T03:50:22;6.90;;;5.53;;
3527;SDS011;1778;47.966;7.854;2022-12-01T03:51:43;13.10;;;6.03;;
3527;SDS011;1778;47.966;7.854;2022-12-01T03:53:10;7.20;;;6.47;;
3527;SDS011;1778;47.966;7.854;2022-12-01T03:55:50;6.33;;;5.83;;
3527;SDS011;1778;47.966;7.854;2022-12-01T03:56:55;6.53;;;5.70;;
3527;SDS011;1778;47.966;7.854;2022-12-01T03:58:10;6.07;;;5.60;;
3527;SDS011;1778;47.966;7.854;2022-12-01T03:59:17;10.33;;;5.43;;
3527;SDS011;1778;47.966;7.854;2022-12-01T04:00:21;38.07;;;6.60;;
3527;SDS011;1778;47.966;7.854;2022-12-01T04:01:23;6.27;;;5.53;;
3527;SDS011;1778;47.966;7.854;2022-12-01T04:02:26;17.87;;;7.30;;
3527;SDS011;1778;47.966;7.854;2022-12-01T04:03:29;15.03;;;6.23;;
3527;SDS011;1778;47.966;7.854;2022-12-01T04:04:30;6.33;;;5.80;;
3527;SDS011;1778;47.966;7.854;2022-12-01T04:05:32;6.97;;;6.27;;
3527;SDS011;1778;47.966;7.854;2022-12-01T04:06:35;10.23;;;5.73;;
3527;SDS011;1778;47.966;7.854;2022-12-01T04:07:37;8.87;;;6.20;;
3527;SDS011;1778;47.966;7.854;2022-12-01T04:08:39;6.10;;;5.50;;
3527;SDS011;1778;47.966;7.854;2022-12-01T04:09:41;7.33;;;6.60;;
3527;SDS011;1778;47.966;7.854;2022-12-01T04:10:43;11.60;;;6.87;;
3527;SDS011;1778;47.966;7.854;2022-12-01T04:11:44;7.37;;;6.60;;
3527;SDS011;1778;47.966;7.854;2022-12-01T04:13:04;5.87;;;5.47;;
3527;SDS011;1778;47.966;7.854;2022-12-01T04:14:06;13.43;;;6.10;;
3527;SDS011;1778;47.966;7.854;2022-12-01T04:15:08;6.33;;;5.13;;
3527;SDS011;1778;47.966;7.854;2022-12-01T04:16:15;6.87;;;5.37;;
3527;SDS011;1778;47.966;7.854;2022-12-01T04:17:16;6.97;;;6.10;;
3527;SDS011;1778;47.966;7.854;2022-12-01T04:18:18;7.27;;;5.63;;
3527;SDS011;1778;47.966;7.854;2022-12-01T04:19:20;5.77;;;5.23;;
3527;SDS011;1778;47.966;7.854;2022-12-01T04:20:22;6.07;;;5.47;;
3527;SDS011;1778;47.966;7.854;2022-12-01T04:21:23;11.53;;;5.73;;
3527;SDS011;1778;47.966;7.854;2022-12-01T04:22:25;9.10;;;5.60;;
3527;SDS011;1778;47.966;7.854;2022-12-01T04:23:27;10.23;;;6.20;;
3527;SDS011;1778;47.966;7.854;2022-12-01T04:24:48;5.90;;;5.40;;
3527;SDS011;1778;47.966;7.854;2022-12-01T04:25:56;5.00;;;4.80;;
3527;SDS011;1778;47.966;7.854;2022-12-01T04:26:59;5.63;;;5.23;;
3527;SDS011;1778;47.966;7.854;2022-12-01T04:28:00;6.60;;;5.40;;
3527;SDS011;1778;47.966;7.854;2022-12-01T04:29:05;5.27;;;4.87;;
3527;SDS011;1778;47.966;7.854;2022-12-01T04:30:07;10.73;;;6.73;;
3527;SDS011;1778;47.966;7.854;2022-12-01T04:31:10;7.73;;;7.00;;
3527;SDS011;1778;47.966;7.854;2022-12-01T04:32:12;5.30;;;4.83;;
3527;SDS011;1778;47.966;7.854;2022-12-01T04:33:14;7.60;;;7.00;;
3527;SDS011;1778;47.966;7.854;2022-12-01T04:34:15;5.13;;;4.70;;
3527;SDS011;1778;47.966;7.854;2022-12-01T04:35:17;8.30;;;6.60;;
3527;SDS011;1778;47.966;7.854;2022-12-01T04:36:18;6.57;;;4.50;;
3527;SDS011;1778;47.966;7.854;2022-12-01T04:37:20;7.10;;;5.30;;
3527;SDS011;1778;47.966;7.854;2022-12-01T04:38:22;8.30;;;5.20;;
3527;SDS011;1778;47.966;7.854;2022-12-01T04:39:30;6.03;;;5.50;;
3527;SDS011;1778;47.966;7.854;2022-12-01T04:40:31;10.00;;;5.23;;
3527;SDS011;1778;47.966;7.854;2022-12-01T04:41:33;5.70;;;5.27;;
3527;SDS011;1778;47.966;7.854;2022-12-01T04:42:34;5.97;;;5.47;;
3527;SDS011;1778;47.966;7.854;2022-12-01T04:43:36;5.97;;;5.40;;
3527;SDS011;1778;47.966;7.854;2022-12-01T04:44:38;5.03;;;4.40;;
3527;SDS011;1778;47.966;7.854;2022-12-01T04:45:39;9.20;;;4.93;;
3527;SDS011;1778;47.966;7.854;2022-12-01T04:46:41;6.77;;;6.00;;
3527;SDS011;1778;47.966;7.854;2022-12-01T04:47:42;6.00;;;5.50;;
3527;SDS011;1778;47.966;7.854;2022-12-01T04:48:44;5.40;;;4.90;;
3527;SDS011;1778;47.966;7.854;2022-12-01T04:49:45;7.07;;;5.17;;
3527;SDS011;1778;47.966;7.854;2022-12-01T04:50:48;4.77;;;4.47;;
3527;SDS011;1778;47.966;7.854;2022-12-01T04:51:49;6.37;;;5.90;;
3527;SDS011;1778;47.966;7.854;2022-12-01T04:52:51;7.40;;;5.40;;
3527;SDS011;1778;47.966;7.854;2022-12-01T04:53:53;9.93;;;5.93;;
3527;SDS011;1778;47.966;7.854;2022-12-01T04:54:55;5.90;;;5.43;;
3527;SDS011;1778;47.966;7.854;2022-12-01T04:55:58;6.43;;;5.37;;
3527;SDS011;1778;47.966;7.854;2022-12-01T04:57:00;5.10;;;4.60;;
3527;SDS011;1778;47.966;7.854;2022-12-01T04:58:02;8.03;;;5.63;;
3527;SDS011;1778;47.966;7.854;2022-12-01T04:59:05;8.27;;;5.13;;
3527;SDS011;1778;47.966;7.854;2022-12-01T05:00:07;6.13;;;5.50;;
3527;SDS011;1778;47.966;7.854;2022-12-01T05:01:13;9.93;;;5.57;;
3527;SDS011;1778;47.966;7.854;2022-12-01T05:02:16;8.30;;;6.17;;
3527;SDS011;1778;47.966;7.854;2022-12-01T05:03:18;5.53;;;5.03;;
3527;SDS011;1778;47.966;7.854;2022-12-01T05:04:19;7.40;;;6.90;;
3527;SDS011;1778;47.966;7.854;2022-12-01T05:05:21;7.10;;;5.60;;
3527;SDS011;1778;47.966;7.854;2022-12-01T05:06:23;7.73;;;5.43;;
3527;SDS011;1778;47.966;7.854;2022-12-01T05:07:26;6.77;;;6.10;;
3527;SDS011;1778;47.966;7.854;2022-12-01T05:08:28;5.57;;;5.10;;
3527;SDS011;1778;47.966;7.854;2022-12-01T05:09:29;6.90;;;6.20;;
3527;SDS011;1778;47.966;7.854;2022-12-01T05:10:33;9.43;;;5.50;;
3527;SDS011;1778;47.966;7.854;2022-12-01T05:11:36;5.17;;;4.87;;
3527;SDS011;1778;47.966;7.854;2022-12-01T05:12:37;5.60;;;5.20;;
3527;SDS011;1778;47.966;7.854;2022-12-01T05:13:40;8.20;;;6.80;;
3527;SDS011;1778;47.966;7.854;2022-12-01T05:14:43;7.30;;;6.33;;
3527;SDS011;1778;47.966;7.854;2022-12-01T05:15:45;5.83;;;5.43;;
3527;SDS011;1778;47.966;7.854;2022-12-01T05:16:47;6.80;;;5.70;;
3527;SDS011;1778;47.966;7.854;2022-12-01T05:17:49;5.80;;;5.30;;
3527;SDS011;1778;47.966;7.854;2022-12-01T05:18:51;4.63;;;3.93;;
3527;SDS011;1778;47.966;7.854;2022-12-01T05:20:17;7.10;;;5.63;;
3527;SDS011;1778;47.966;7.854;2022-12-01T05:21:42;5.73;;;5.30;;
3527;SDS011;1778;47.966;7.854;2022-12-01T05:22:44;11.50;;;6.60;;
3527;SDS011;1778;47.966;7.854;2022-12-01T05:24:06;6.63;;;6.10;;
3527;SDS011;1778;47.966;7.854;2022-12-01T05:25:08;8.20;;;5.87;;
3527;SDS011;1778;47.966;7.854;2022-12-01T05:26:09;5.10;;;4.63;;
3527;SDS011;1778;47.966;7.854;2022-12-01T05:27:11;8.50;;;5.97;;
3527;SDS011;1778;47.966;7.854;2022-12-01T05:28:12;6.13;;;5.73;;
3527;SDS011;1778;47.966;7.854;2022-12-01T05:29:14;7.50;;;5.97;;
3527;SDS011;1778;47.966;7.854;2022-12-01T05:30:16;5.07;;;4.73;;
3527;SDS011;1778;47.966;7.854;2022-12-01T05:31:17;8.37;;;5.67;;
3527;SDS011;1778;47.966;7.854;2022-12-01T05:32:19;7.00;;;5.23;;
3527;SDS011;1778;47.966;7.854;2022-12-01T05:33:21;13.33;;;4.83;;
3527;SDS011;1778;47.966;7.854;2022-12-01T05:34:24;8.23;;;5.60;;
3527;SDS011;1778;47.966;7.854;2022-12-01T05:35:25;6.63;;;6.10;;
3527;SDS011;1778;47.966;7.854;2022-12-01T05:36:27;8.13;;;6.40;;
3527;SDS011;1778;47.966;7.854;2022-12-01T05:37:28;5.23;;;4.73;;
3527;SDS011;1778;47.966;7.854;2022-12-01T05:38:33;6.03;;;5.50;;
3527;SDS011;1778;47.966;7.854;2022-12-01T05:39:34;6.00;;;5.50;;
3527;SDS011;1778;47.966;7.854;2022-12-01T05:40:36;11.50;;;5.77;;
3527;SDS011;1778;47.966;7.854;2022-12-01T05:41:38;8.50;;;5.63;;
3527;SDS011;1778;47.966;7.854;2022-12-01T05:42:39;5.90;;;5.10;;
3527;SDS011;1778;47.966;7.854;2022-12-01T05:43:41;8.27;;;5.67;;
3527;SDS011;1778;47.966;7.854;2022-12-01T05:44:42;6.90;;;5.80;;
3527;SDS011;1778;47.966;7.854;2022-12-01T05:45:44;5.57;;;5.10;;
3527;SDS011;1778;47.966;7.854;2022-12-01T05:46:45;5.70;;;5.37;;
3527;SDS011;1778;47.966;7.854;2022-12-01T05:47:47;13.23;;;6.63;;
3527;SDS011;1778;47.966;7.854;2022-12-01T05:48:48;7.57;;;5.87;;
3527;SDS011;1778;47.966;7.854;2022-12-01T05:49:50;4.67;;;4.27;;
3527;SDS011;1778;47.966;7.854;2022-12-01T05:50:51;4.60;;;4.27;;
3527;SDS011;1778;47.966;7.854;2022-12-01T05:51:53;8.37;;;4.70;;
3527;SDS011;1778;47.966;7.854;2022-12-01T05:52:55;5.57;;;5.07;;
3527;SDS011;1778;47.966;7.854;2022-12-01T05:53:57;5.10;;;4.60;;
3527;SDS011;1778;47.966;7.854;2022-12-01T05:55:00;4.60;;;3.97;;
3527;SDS011;1778;47.966;7.854;2022-12-01T05:56:02;4.00;;;3.70;;
3527;SDS011;1778;47.966;7.854;2022-12-01T05:57:04;5.50;;;4.87;;
3527;SDS011;1778;47.966;7.854;2022-12-01T05:58:06;5.60;;;4.60;;
3527;SDS011;1778;47.966;7.854;2022-12-01T05:59:07;7.23;;;4.83;;
3527;SDS011;1778;47.966;7.854;2022-12-01T06:00:09;4.80;;;4.60;;
3527;SDS011;1778;47.966;7.854;2022-12-01T06:01:12;4.63;;;4.30;;
3527;SDS011;1778;47.966;7.854;2022-12-01T06:02:14;4.40;;;4.20;;
3527;SDS011;1778;47.966;7.854;2022-12-01T06:03:15;9.73;;;5.43;;
3527;SDS011;1778;47.966;7.854;2022-12-01T06:04:17;5.70;;;5.20;;
3527;SDS011;1778;47.966;7.854;2022-12-01T06:05:19;4.53;;;4.23;;
3527;SDS011;1778;47.966;7.854;2022-12-01T06:06:20;7.57;;;6.63;;
3527;SDS011;1778;47.966;7.854;2022-12-01T06:07:22;8.07;;;5.07;;
3527;SDS011;1778;47.966;7.854;2022-12-01T06:08:25;3.90;;;3.60;;
3527;SDS011;1778;47.966;7.854;2022-12-01T06:09:27;4.83;;;4.37;;
3527;SDS011;1778;47.966;7.854;2022-12-01T06:10:28;7.67;;;4.83;;
3527;SDS011;1778;47.966;7.854;2022-12-01T06:11:30;6.30;;;5.73;;
3527;SDS011;1778;47.966;7.854;2022-12-01T06:12:31;7.70;;;4.67;;
3527;SDS011;1778;47.966;7.854;2022-12-01T06:13:33;6.23;;;4.80;;
3527;SDS011;1778;47.966;7.854;2022-12-01T06:14:34;5.23;;;4.83;;
3527;SDS011;1778;47.966;7.854;2022-12-01T06:15:36;5.60;;;5.13;;
3527;SDS011;1778;47.966;7.854;2022-12-01T06:16:37;5.70;;;4.90;;
3527;SDS011;1778;47.966;7.854;2022-12-01T06:17:39;5.83;;;5.33;;
3527;SDS011;1778;47.966;7.854;2022-12-01T06:18:41;4.13;;;3.63;;
3527;SDS011;1778;47.966;7.854;2022-12-01T06:19:42;5.23;;;4.70;;
3527;SDS011;1778;47.966;7.854;2022-12-01T06:20:44;12.53;;;4.97;;
3527;SDS011;1778;47.966;7.854;2022-12-01T06:21:45;5.50;;;4.97;;
3527;SDS011;1778;47.966;7.854;2022-12-01T06:22:47;6.20;;;4.63;;
3527;SDS011;1778;47.966;7.854;2022-12-01T06:23:48;3.30;;;3.20;;
3527;SDS011;1778;47.966;7.854;2022-12-01T06:24:50;4.27;;;3.83;;
3527;SDS011;1778;47.966;7.854;2022-12-01T06:25:51;5.47;;;4.97;;
3527;SDS011;1778;47.966;7.854;2022-12-01T06:26:53;7.63;;;4.73;;
3527;SDS011;1778;47.966;7.854;2022-12-01T06:27:55;4.40;;;4.10;;
3527;SDS011;1778;47.966;7.854;2022-12-01T06:28:58;4.87;;;4.20;;
3527;SDS011;1778;47.966;7.854;2022-12-01T06:30:00;9.50;;;4.40;;
3527;SDS011;1778;47.966;7.854;2022-12-01T06:31:01;4.10;;;3.80;;
3527;SDS011;1778;47.966;7.854;2022-12-01T06:32:04;4.23;;;3.83;;
3527;SDS011;1778;47.966;7.854;2022-12-01T06:33:05;3.77;;;3.57;;
3527;SDS011;1778;47.966;7.854;2022-12-01T06:34:07;5.93;;;4.43;;
3527;SDS011;1778;47.966;7.854;2022-12-01T06:35:09;5.87;;;4.00;;
3527;SDS011;1778;47.966;7.854;2022-12-01T06:36:11;4.53;;;4.23;;
3527;SDS011;1778;47.966;7.854;2022-12-01T06:37:14;3.50;;;3.40;;
3527;SDS011;1778;47.966;7.854;2022-12-01T06:38:16;5.77;;;5.00;;
3527;SDS011;1778;47.966;7.854;2022-12-01T06:39:18;8.20;;;4.97;;
3527;SDS011;1778;47.966;7.854;2022-12-01T06:40:19;5.73;;;4.00;;
3527;SDS011;1778;47.966;7.854;2022-12-01T06:41:21;5.57;;;5.07;;
3527;SDS011;1778;47.966;7.854;2022-12-01T06:42:22;4.50;;;4.30;;
3527;SDS011;1778;47.966;7.854;2022-12-01T06:43:24;3.20;;;3.00;;
3527;SDS011;1778;47.966;7.854;2022-12-01T06:44:26;4.13;;;3.80;;
3527;SDS011;1778;47.966;7.854;2022-12-01T06:45:28;4.07;;;3.80;;
3527;SDS011;1778;47.966;7.854;2022-12-01T06:46:30;6.63;;;4.80;;
3527;SDS011;1778;47.966;7.854;2022-12-01T06:47:32;4.03;;;3.73;;
3527;SDS011;1778;47.966;7.854;2022-12-01T06:48:33;9.80;;;4.60;;
3527;SDS011;1778;47.966;7.854;2022-12-01T06:49:35;3.50;;;3.30;;
3527;SDS011;1778;47.966;7.854;2022-12-01T06:50:37;3.60;;;3.40;;
3527;SDS011;1778;47.966;7.854;2022-12-01T06:51:39;4.87;;;3.87;;
3527;SDS011;1778;47.966;7.854;2022-12-01T06:52:40;4.67;;;4.40;;
3527;SDS011;1778;47.966;7.854;2022-12-01T06:53:42;4.80;;;4.13;;
3527;SDS011;1778;47.966;7.854;2022-12-01T06:54:44;6.03;;;4.87;;
3527;SDS011;1778;47.966;7.854;2022-12-01T06:55:46;6.80;;;5.03;;
3527;SDS011;1778;47.966;7.854;2022-12-01T06:56:47;7.37;;;4.10;;
3527;SDS011;1778;47.966;7.854;2022-12-01T06:57:49;5.87;;;4.10;;
3527;SDS011;1778;47.966;7.854;2022-12-01T06:58:51;3.73;;;3.27;;
3527;SDS011;1778;47.966;7.854;2022-12-01T06:59:53;9.53;;;4.33;;
3527;SDS011;1778;47.966;7.854;2022-12-01T07:00:55;4.57;;;4.17;;
3527;SDS011;1778;47.966;7.854;2022-12-01T07:01:58;7.03;;;4.20;;
3527;SDS011;1778;47.966;7.854;2022-12-01T07:03:00;4.77;;;3.67;;
3527;SDS011;1778;47.966;7.854;2022-12-01T07:04:02;6.67;;;5.60;;
3527;SDS011;1778;47.966;7.854;2022-12-01T07:05:04;4.67;;;4.37;;
3527;SDS011;1778;47.966;7.854;2022-12-01T07:06:05;7.50;;;6.00;;
3527;SDS011;1778;47.966;7.854;2022-12-01T07:07:07;6.07;;;5.60;;
3527;SDS011;1778;47.966;7.854;2022-12-01T07:08:08;4.80;;;4.47;;
3527;SDS011;1778;47.966;7.854;2022-12-01T07:09:12;4.33;;;4.13;;
3527;SDS011;1778;47.966;7.854;2022-12-01T07:10:13;4.30;;;4.10;;
3527;SDS011;1778;47.966;7.854;2022-12-01T07:11:15;4.70;;;3.77;;
3527;SDS011;1778;47.966;7.854;2022-12-01T07:12:16;4.67;;;3.40;;
3527;SDS011;1778;47.966;7.854;2022-12-01T07:13:18;5.23;;;4.60;;